Tropical Cyclones
[Index]
Main Index Home Page Stock Weather Photos Extreme Storms Discussion Storm News and Storm Chasing Reports Tropical Cyclones / Hurricanes / Typhoons Weather Data and Links Wild Fires / Bushfires Weather Observation Techniques Weather Picture Catalogue Tornado Pictures and Reports Stock Video Footage and DVDs for sale
Season 2006-2007 Tropical Cyclone TROP-DEPRESSION-02 Track Map
Season 2006-2007 Summaries (Operational Data): [AU] [SIO] [SPAC] [SH]
<<- Previous TC | 2006-2007 Season | Next TC ->>

click for intensity scale information  Lat/long Grid: Show Hide

 Date Labels: Show Hide

Operational Tropical Cyclone Data

Name: TROP-DEPRESSION-02
Number: 07PC

21 Mar 2007 20:00 UTC to 26 Mar 2007 06:00 UTC

    date/time    lat    long     hPa   cat  kts
2007-03-21 20   14.2   174.2    1005         25          
2007-03-22 00   15.0   174.4    1003         30          
2007-03-22 06   14.5   175.0    1000         30          
2007-03-22 12   14.5   175.6     998         30          
2007-03-22 18   14.5   175.2     998         30          
2007-03-23 00   14.4   174.7     998         30          
2007-03-23 06   15.0   175.0     999         25          
2007-03-23 12   15.5   175.1                             
2007-03-23 18   15.6   176.0     999         25          
2007-03-24 00   16.6   175.7                             
2007-03-24 06   16.9   175.8     999         25          
2007-03-24 12   17.8   175.2                             
2007-03-24 18   18.0   175.8     999         25          
2007-03-25 00   18.4   175.8                             
2007-03-25 06   19.2   175.5     999         25          
2007-03-25 12   19.7   175.7                             
2007-03-25 18   21.0   176.2     999         25          
2007-03-26 00   22.0   176.5                             
2007-03-26 06   22.0   176.0    1001         20          
Winds are 10-min average.

Tropical cyclone tracks developed by Michael Bath using operational warnings and advisories and Google Maps.


[Australian Severe Weather index] [Copyright Notice] [Email Contacts] [Search This Site] [Privacy Policy]
Document: tropical_cyclone_trop-depression-02.htm Updated: 28 May 2013